Time;durP1;ratioP1;P1;durP2;ratioP2;P2;SDS_P1;SDS_P2;PMS_P1;PMS_P2;Temp;Humidity;BMP_temperature;BMP_pressure;BME280_temperature;BME280_humidity;BME280_pressure;Samples;Min_cycle;Max_cycle;Signal;HPM_P1;HPM_P2
2021/08/01 00:02:26;;;;;;;0.10;0.10;;;;;;;;;;5084688;28;20213;-73
2021/08/01 00:04:52;;;;;;;0.00;0.00;;;;;;;;;;5084209;28;20210;-73
2021/08/01 00:07:18;;;;;;;0.00;0.00;;;;;;;;;;5084527;28;20481;-72
2021/08/01 00:09:45;;;;;;;0.00;0.00;;;;;;;;;;5088305;28;20199;-72
2021/08/01 00:12:12;;;;;;;0.00;0.00;;;;;;;;;;5094008;28;20561;-72
2021/08/01 00:14:38;;;;;;;0.00;0.00;;;;;;;;;;5098155;28;20225;-72
2021/08/01 00:17:04;;;;;;;0.00;0.00;;;;;;;;;;5083863;28;20226;-71
2021/08/01 00:19:32;;;;;;;0.00;0.00;;;;;;;;;;5098411;28;20260;-73
2021/08/01 00:21:58;;;;;;;0.00;0.00;;;;;;;;;;5084574;28;20204;-73
2021/08/01 00:24:24;;;;;;;0.00;0.00;;;;;;;;;;5097189;28;20253;-72
2021/08/01 00:26:50;;;;;;;0.10;0.10;;;;;;;;;;5085091;28;20371;-72
2021/08/01 00:29:17;;;;;;;0.00;0.00;;;;;;;;;;5083783;28;20205;-72
2021/08/01 00:31:43;;;;;;;0.00;0.00;;;;;;;;;;5087152;28;20212;-72
2021/08/01 00:34:09;;;;;;;0.00;0.00;;;;;;;;;;5104236;28;20197;-73
2021/08/01 00:36:37;;;;;;;0.10;0.10;;;;;;;;;;5102954;28;20232;-72
2021/08/01 00:39:03;;;;;;;0.00;0.00;;;;;;;;;;5100792;28;20205;-73
2021/08/01 00:41:29;;;;;;;0.00;0.00;;;;;;;;;;5089397;28;20226;-72
2021/08/01 00:43:55;;;;;;;0.10;0.10;;;;;;;;;;5103328;28;20244;-73
2021/08/01 00:46:22;;;;;;;0.00;0.00;;;;;;;;;;5104162;28;20249;-73
2021/08/01 00:48:48;;;;;;;0.00;0.00;;;;;;;;;;5091982;28;20204;-73
2021/08/01 00:51:14;;;;;;;0.00;0.00;;;;;;;;;;5094532;28;20210;-74
2021/08/01 00:53:42;;;;;;;0.00;0.00;;;;;;;;;;5104214;28;20279;-74
2021/08/01 00:56:09;;;;;;;0.00;0.00;;;;;;;;;;5094553;28;20230;-74
2021/08/01 00:58:36;;;;;;;0.03;0.03;;;;;;;;;;5097844;28;20286;-73
2021/08/01 01:01:13;;;;;;;0.10;0.10;;;;;;;;;;5090712;28;20201;-72
2021/08/01 01:03:42;;;;;;;0.00;0.00;;;;;;;;;;5102941;28;20200;-73
2021/08/01 01:06:11;;;;;;;0.00;0.00;;;;;;;;;;5096590;28;20205;-73
2021/08/01 01:08:40;;;;;;;0.00;0.00;;;;;;;;;;5096948;28;20216;-72
2021/08/01 01:11:08;;;;;;;0.00;0.00;;;;;;;;;;5103806;28;20203;-73
2021/08/01 01:13:36;;;;;;;0.00;0.00;;;;;;;;;;5103772;28;20402;-73
2021/08/01 01:16:02;;;;;;;0.00;0.00;;;;;;;;;;5103775;28;20220;-73
2021/08/01 01:18:30;;;;;;;0.00;0.00;;;;;;;;;;5103707;28;20235;-72
2021/08/01 01:21:10;;;;;;;0.00;0.00;;;;;;;;;;5101260;28;20413;-72
2021/08/01 01:23:42;;;;;;;0.05;0.05;;;;;;;;;;5093819;28;20255;-72
2021/08/01 01:26:12;;;;;;;0.10;0.10;;;;;;;;;;5103453;28;20375;-73
2021/08/01 01:28:39;;;;;;;0.00;0.00;;;;;;;;;;5103795;28;20406;-73
2021/08/01 01:31:10;;;;;;;0.00;0.00;;;;;;;;;;5102955;28;20205;-73
2021/08/01 01:33:38;;;;;;;0.10;0.10;;;;;;;;;;5094436;28;20324;-73
2021/08/01 01:36:07;;;;;;;0.00;0.00;;;;;;;;;;5084109;28;20243;-73
2021/08/01 01:38:35;;;;;;;0.00;0.00;;;;;;;;;;5095916;28;20204;-73
2021/08/01 01:41:01;;;;;;;0.00;0.00;;;;;;;;;;5096872;28;20422;-73
2021/08/01 01:43:28;;;;;;;0.00;0.00;;;;;;;;;;5083021;28;20208;-73
2021/08/01 01:45:54;;;;;;;0.00;0.00;;;;;;;;;;5095067;28;20195;-74
2021/08/01 01:48:20;;;;;;;0.00;0.00;;;;;;;;;;5103456;28;20284;-74
2021/08/01 01:50:47;;;;;;;0.10;0.10;;;;;;;;;;5093995;28;20245;-74
2021/08/01 01:53:14;;;;;;;0.00;0.00;;;;;;;;;;5097504;28;20241;-73
2021/08/01 01:55:42;;;;;;;0.00;0.00;;;;;;;;;;5090431;28;20552;-73
2021/08/01 01:58:11;;;;;;;0.00;0.00;;;;;;;;;;5102854;28;20223;-73
2021/08/01 02:00:37;;;;;;;0.00;0.00;;;;;;;;;;5089705;28;20510;-72
2021/08/01 02:03:03;;;;;;;0.00;0.00;;;;;;;;;;5103201;28;20204;-73
2021/08/01 02:05:29;;;;;;;0.00;0.00;;;;;;;;;;5103165;28;20303;-72
2021/08/01 02:07:56;;;;;;;0.10;0.10;;;;;;;;;;5102737;28;20206;-72
2021/08/01 02:10:25;;;;;;;0.00;0.00;;;;;;;;;;5088460;28;20208;-73
2021/08/01 02:12:53;;;;;;;0.00;0.00;;;;;;;;;;5102731;28;20209;-74
2021/08/01 02:15:21;;;;;;;0.00;0.00;;;;;;;;;;5104383;28;20418;-73
2021/08/01 02:17:50;;;;;;;0.00;0.00;;;;;;;;;;5103762;28;20232;-73
2021/08/01 02:20:19;;;;;;;0.00;0.00;;;;;;;;;;5106758;28;20206;-73
2021/08/01 02:22:45;;;;;;;0.00;0.00;;;;;;;;;;5092356;28;20205;-72
2021/08/01 02:25:13;;;;;;;0.00;0.00;;;;;;;;;;5106849;28;20242;-72
2021/08/01 02:27:41;;;;;;;0.00;0.00;;;;;;;;;;5091938;28;20249;-74
2021/08/01 02:30:09;;;;;;;0.00;0.00;;;;;;;;;;5107059;28;20479;-74
2021/08/01 02:32:36;;;;;;;0.00;0.00;;;;;;;;;;5106535;28;20216;-75
2021/08/01 02:35:03;;;;;;;0.00;0.00;;;;;;;;;;5106617;28;20201;-73
2021/08/01 02:37:30;;;;;;;0.00;0.00;;;;;;;;;;5104735;28;20247;-73
2021/08/01 02:39:56;;;;;;;0.00;0.00;;;;;;;;;;5093916;28;20196;-74
2021/08/01 02:42:23;;;;;;;0.10;0.10;;;;;;;;;;5092422;28;20263;-74
2021/08/01 02:44:50;;;;;;;0.10;0.10;;;;;;;;;;5086136;28;20193;-72
2021/08/01 02:47:19;;;;;;;0.00;0.00;;;;;;;;;;5098319;28;20217;-75
2021/08/01 02:49:46;;;;;;;0.10;0.10;;;;;;;;;;5105607;28;20206;-73
2021/08/01 02:52:13;;;;;;;0.00;0.00;;;;;;;;;;5106256;28;20228;-73
2021/08/01 02:54:40;;;;;;;0.00;0.00;;;;;;;;;;5106108;28;20206;-73
2021/08/01 02:57:08;;;;;;;0.00;0.00;;;;;;;;;;5100852;28;20267;-72
2021/08/01 02:59:35;;;;;;;0.00;0.00;;;;;;;;;;5097164;28;20250;-73
2021/08/01 03:02:02;;;;;;;0.10;0.10;;;;;;;;;;5105765;28;20202;-74
2021/08/01 03:04:29;;;;;;;0.00;0.00;;;;;;;;;;5105626;28;20205;-74
2021/08/01 03:06:56;;;;;;;0.00;0.00;;;;;;;;;;5105795;28;20203;-73
2021/08/01 03:09:23;;;;;;;0.00;0.00;;;;;;;;;;5105526;28;20274;-73
2021/08/01 03:11:49;;;;;;;0.00;0.00;;;;;;;;;;5105657;28;20495;-74
2021/08/01 03:14:16;;;;;;;0.00;0.00;;;;;;;;;;5085064;28;20240;-73
2021/08/01 03:16:42;;;;;;;0.00;0.00;;;;;;;;;;5097678;28;20248;-73
2021/08/01 03:19:08;;;;;;;0.05;0.05;;;;;;;;;;5105183;28;20226;-75
2021/08/01 03:21:36;;;;;;;0.00;0.00;;;;;;;;;;5105701;28;20206;-74
2021/08/01 03:24:02;;;;;;;0.00;0.00;;;;;;;;;;5105606;28;20232;-74
2021/08/01 03:26:28;;;;;;;0.03;0.03;;;;;;;;;;5105025;28;20489;-77
2021/08/01 03:28:55;;;;;;;0.00;0.00;;;;;;;;;;5104129;28;20231;-72
2021/08/01 03:31:21;;;;;;;0.00;0.00;;;;;;;;;;5084864;28;20226;-72
2021/08/01 03:33:47;;;;;;;0.10;0.10;;;;;;;;;;5098444;28;20206;-73
2021/08/01 03:36:14;;;;;;;0.00;0.00;;;;;;;;;;5104768;28;20232;-73
2021/08/01 03:38:41;;;;;;;0.03;0.03;;;;;;;;;;5093737;28;20263;-72
2021/08/01 03:41:07;;;;;;;0.00;0.00;;;;;;;;;;5102277;28;20581;-74
2021/08/01 03:43:34;;;;;;;0.00;0.00;;;;;;;;;;5104920;28;20259;-72
2021/08/01 03:46:00;;;;;;;0.00;0.00;;;;;;;;;;5104962;28;20454;-74
2021/08/01 03:48:27;;;;;;;0.05;0.05;;;;;;;;;;5104534;28;20203;-74
2021/08/01 03:50:53;;;;;;;0.00;0.00;;;;;;;;;;5094245;28;20477;-73
2021/08/01 03:53:20;;;;;;;0.10;0.10;;;;;;;;;;5100643;28;20250;-73
2021/08/01 03:55:47;;;;;;;0.00;0.00;;;;;;;;;;5104861;28;20200;-73
2021/08/01 03:58:13;;;;;;;0.00;0.00;;;;;;;;;;5104419;28;20231;-73
2021/08/01 04:00:45;;;;;;;0.08;0.08;;;;;;;;;;5104007;28;20287;-73
2021/08/01 04:03:11;;;;;;;0.00;0.00;;;;;;;;;;5104602;28;20222;-73
2021/08/01 04:05:38;;;;;;;0.00;0.00;;;;;;;;;;5103962;28;20204;-73
2021/08/01 04:08:05;;;;;;;0.00;0.00;;;;;;;;;;5104250;28;20200;-73
2021/08/01 04:10:31;;;;;;;0.00;0.00;;;;;;;;;;5104485;28;20391;-74
2021/08/01 04:12:59;;;;;;;0.03;0.03;;;;;;;;;;5104285;28;20194;-73
2021/08/01 04:15:25;;;;;;;0.10;0.10;;;;;;;;;;5104401;28;20496;-73
2021/08/01 04:17:51;;;;;;;0.05;0.05;;;;;;;;;;5104337;28;20528;-74
2021/08/01 04:20:17;;;;;;;0.00;0.00;;;;;;;;;;5104400;28;20219;-73
2021/08/01 04:22:44;;;;;;;0.10;0.10;;;;;;;;;;5083649;28;20367;-73
2021/08/01 04:25:11;;;;;;;0.00;0.00;;;;;;;;;;5096388;28;20206;-73
2021/08/01 04:27:37;;;;;;;0.00;0.00;;;;;;;;;;5104355;28;20201;-73
2021/08/01 04:30:05;;;;;;;0.00;0.00;;;;;;;;;;5104308;28;20420;-72
2021/08/01 04:32:31;;;;;;;0.00;0.00;;;;;;;;;;5104093;28;20250;-73
2021/08/01 04:34:58;;;;;;;0.10;0.10;;;;;;;;;;5104034;28;20206;-73
2021/08/01 04:37:24;;;;;;;0.00;0.00;;;;;;;;;;5103488;28;20259;-73
2021/08/01 04:39:50;;;;;;;0.00;0.00;;;;;;;;;;5103082;28;20198;-72
2021/08/01 04:42:16;;;;;;;0.00;0.00;;;;;;;;;;5090876;28;20315;-73
2021/08/01 04:44:42;;;;;;;0.00;0.00;;;;;;;;;;5102547;28;20210;-72
2021/08/01 04:47:12;;;;;;;0.00;0.00;;;;;;;;;;5103433;28;20206;-73
2021/08/01 04:49:39;;;;;;;0.00;0.00;;;;;;;;;;5089530;28;20365;-72
2021/08/01 04:52:05;;;;;;;0.00;0.00;;;;;;;;;;5103459;28;20213;-72
2021/08/01 04:54:31;;;;;;;0.10;0.10;;;;;;;;;;5103596;28;20254;-72
2021/08/01 04:56:58;;;;;;;0.10;0.10;;;;;;;;;;5103734;28;20492;-72
2021/08/01 04:59:24;;;;;;;0.00;0.00;;;;;;;;;;5103136;28;20295;-73
2021/08/01 05:01:50;;;;;;;0.10;0.10;;;;;;;;;;5103742;28;20215;-73
2021/08/01 05:04:19;;;;;;;0.00;0.00;;;;;;;;;;5103966;28;20389;-74
2021/08/01 05:06:45;;;;;;;0.00;0.00;;;;;;;;;;5089189;28;20206;-74
2021/08/01 05:09:12;;;;;;;0.00;0.00;;;;;;;;;;5103546;28;20258;-73
2021/08/01 05:11:38;;;;;;;0.10;0.10;;;;;;;;;;5103962;28;20358;-73
2021/08/01 05:14:05;;;;;;;0.00;0.00;;;;;;;;;;5103267;28;20206;-73
2021/08/01 05:16:31;;;;;;;0.00;0.00;;;;;;;;;;5092430;28;20242;-72
2021/08/01 05:18:57;;;;;;;0.00;0.00;;;;;;;;;;5099940;28;20231;-73
2021/08/01 05:21:25;;;;;;;0.00;0.00;;;;;;;;;;5103338;28;20227;-74
2021/08/01 05:23:51;;;;;;;0.00;0.00;;;;;;;;;;5102165;28;20260;-73
2021/08/01 05:26:18;;;;;;;0.00;0.00;;;;;;;;;;5090377;28;20555;-73
2021/08/01 05:28:44;;;;;;;0.00;0.00;;;;;;;;;;5103315;28;20199;-73
2021/08/01 05:31:10;;;;;;;0.00;0.00;;;;;;;;;;5103380;28;20208;-72
2021/08/01 05:33:36;;;;;;;0.00;0.00;;;;;;;;;;5091741;28;20491;-73
2021/08/01 05:36:05;;;;;;;0.00;0.00;;;;;;;;;;5101032;28;20448;-73
2021/08/01 05:38:33;;;;;;;0.00;0.00;;;;;;;;;;5103460;28;20224;-73
2021/08/01 05:40:59;;;;;;;0.10;0.10;;;;;;;;;;5103385;28;20209;-73
2021/08/01 05:43:25;;;;;;;0.00;0.00;;;;;;;;;;5103332;28;20212;-73
2021/08/01 05:45:51;;;;;;;0.03;0.03;;;;;;;;;;5103293;28;20202;-73
2021/08/01 05:48:17;;;;;;;0.00;0.00;;;;;;;;;;5103288;28;20201;-73
2021/08/01 05:50:44;;;;;;;0.00;0.00;;;;;;;;;;5106442;28;20263;-72
2021/08/01 05:53:10;;;;;;;0.00;0.00;;;;;;;;;;5107082;28;20210;-72
2021/08/01 05:55:37;;;;;;;0.10;0.10;;;;;;;;;;5107291;28;20258;-73
2021/08/01 05:58:03;;;;;;;0.03;0.03;;;;;;;;;;5106864;28;20221;-73
2021/08/01 06:00:30;;;;;;;0.00;0.00;;;;;;;;;;5102410;28;20223;-72
2021/08/01 06:02:56;;;;;;;0.00;0.00;;;;;;;;;;5098148;28;20208;-73
2021/08/01 06:05:22;;;;;;;0.00;0.00;;;;;;;;;;5107024;28;20263;-73
2021/08/01 06:07:48;;;;;;;0.00;0.00;;;;;;;;;;5107298;28;20201;-73
2021/08/01 06:10:15;;;;;;;0.00;0.00;;;;;;;;;;5107446;28;20263;-73
2021/08/01 06:12:42;;;;;;;0.00;0.00;;;;;;;;;;5107035;28;20209;-73
2021/08/01 06:15:09;;;;;;;0.00;0.00;;;;;;;;;;5106523;28;20264;-73
2021/08/01 06:17:35;;;;;;;0.00;0.00;;;;;;;;;;5106632;28;20250;-72
2021/08/01 06:20:01;;;;;;;0.10;0.10;;;;;;;;;;5106691;28;20324;-73
2021/08/01 06:22:28;;;;;;;0.00;0.00;;;;;;;;;;5106533;28;20205;-72
2021/08/01 06:24:54;;;;;;;0.00;0.00;;;;;;;;;;5106629;28;20261;-74
2021/08/01 06:27:21;;;;;;;0.00;0.00;;;;;;;;;;5106138;28;20217;-74
2021/08/01 06:29:48;;;;;;;0.00;0.00;;;;;;;;;;5106767;28;20234;-73
2021/08/01 06:32:14;;;;;;;0.10;0.10;;;;;;;;;;5106354;28;20263;-73
2021/08/01 06:34:41;;;;;;;0.10;0.10;;;;;;;;;;5106600;28;20200;-73
2021/08/01 06:37:07;;;;;;;0.00;0.00;;;;;;;;;;5107202;28;20578;-73
2021/08/01 06:39:33;;;;;;;0.00;0.00;;;;;;;;;;5106496;28;20210;-73
2021/08/01 06:42:00;;;;;;;0.00;0.00;;;;;;;;;;5106522;28;20241;-72
2021/08/01 06:44:26;;;;;;;0.10;0.10;;;;;;;;;;5106203;28;20375;-73
2021/08/01 06:46:54;;;;;;;0.00;0.00;;;;;;;;;;5106441;28;20337;-73
2021/08/01 06:49:20;;;;;;;0.10;0.10;;;;;;;;;;5106408;28;20213;-72
2021/08/01 06:51:46;;;;;;;0.10;0.10;;;;;;;;;;5091944;28;20202;-72
2021/08/01 06:54:12;;;;;;;0.00;0.00;;;;;;;;;;5106180;28;20317;-73
2021/08/01 06:56:39;;;;;;;0.00;0.00;;;;;;;;;;5091604;28;20246;-73
2021/08/01 06:59:05;;;;;;;0.10;0.10;;;;;;;;;;5105882;28;20280;-73
2021/08/01 07:01:31;;;;;;;0.10;0.10;;;;;;;;;;5104368;28;20510;-73
2021/08/01 07:03:59;;;;;;;0.00;0.00;;;;;;;;;;5100119;28;20234;-74
2021/08/01 07:06:25;;;;;;;0.00;0.00;;;;;;;;;;5097566;28;20206;-73
2021/08/01 07:08:51;;;;;;;0.00;0.00;;;;;;;;;;5091313;28;20201;-73
2021/08/01 07:11:17;;;;;;;0.00;0.00;;;;;;;;;;5105597;28;20204;-74
2021/08/01 07:13:45;;;;;;;0.03;0.03;;;;;;;;;;5105369;28;20270;-73
2021/08/01 07:16:12;;;;;;;0.00;0.00;;;;;;;;;;5105406;28;20232;-74
2021/08/01 07:18:38;;;;;;;0.00;0.00;;;;;;;;;;5105900;28;20239;-74
2021/08/01 07:21:06;;;;;;;0.00;0.00;;;;;;;;;;5106715;28;20507;-74
2021/08/01 07:23:32;;;;;;;0.00;0.00;;;;;;;;;;5106115;28;20421;-73
2021/08/01 07:25:59;;;;;;;0.00;0.00;;;;;;;;;;5105495;28;20206;-73
2021/08/01 07:28:25;;;;;;;0.00;0.00;;;;;;;;;;5105892;28;20238;-72
2021/08/01 07:30:52;;;;;;;0.10;0.10;;;;;;;;;;5105384;28;20536;-73
2021/08/01 07:33:19;;;;;;;0.00;0.00;;;;;;;;;;5096442;28;20236;-73
2021/08/01 07:35:45;;;;;;;0.00;0.00;;;;;;;;;;5100417;28;20236;-72
2021/08/01 07:38:12;;;;;;;0.00;0.00;;;;;;;;;;5105486;28;20230;-75
2021/08/01 07:40:39;;;;;;;0.10;0.10;;;;;;;;;;5105294;28;20208;-73
2021/08/01 07:43:05;;;;;;;0.00;0.00;;;;;;;;;;5099477;28;20215;-73
2021/08/01 07:45:34;;;;;;;0.00;0.00;;;;;;;;;;5085045;28;20215;-74
2021/08/01 07:48:00;;;;;;;0.00;0.00;;;;;;;;;;5088109;28;20194;-73
2021/08/01 07:50:27;;;;;;;0.05;0.05;;;;;;;;;;5104824;28;20206;-73
2021/08/01 07:52:53;;;;;;;0.03;0.03;;;;;;;;;;5104629;28;20247;-74
2021/08/01 07:55:21;;;;;;;0.10;0.10;;;;;;;;;;5104393;28;20368;-72
2021/08/01 07:57:49;;;;;;;0.10;0.10;;;;;;;;;;5105039;28;20410;-74
2021/08/01 08:00:16;;;;;;;0.00;0.00;;;;;;;;;;5099864;28;20530;-73
2021/08/01 08:02:42;;;;;;;0.10;0.10;;;;;;;;;;5102083;28;20206;-74
2021/08/01 08:05:09;;;;;;;0.00;0.00;;;;;;;;;;5098992;28;20205;-73
2021/08/01 08:07:35;;;;;;;0.10;0.10;;;;;;;;;;5098824;28;20283;-73
2021/08/01 08:10:01;;;;;;;0.00;0.00;;;;;;;;;;5099660;28;20523;-74
2021/08/01 08:12:29;;;;;;;0.10;0.10;;;;;;;;;;5091414;28;20205;-73
2021/08/01 08:14:55;;;;;;;0.10;0.10;;;;;;;;;;5092289;28;20204;-75
2021/08/01 08:17:22;;;;;;;0.00;0.00;;;;;;;;;;5089564;28;20203;-74
2021/08/01 08:19:48;;;;;;;0.00;0.00;;;;;;;;;;5086855;28;20525;-74
2021/08/01 08:22:15;;;;;;;0.00;0.00;;;;;;;;;;5094324;28;20220;-73
2021/08/01 08:24:41;;;;;;;0.00;0.00;;;;;;;;;;5094044;28;20204;-73
2021/08/01 08:27:08;;;;;;;0.00;0.00;;;;;;;;;;5096202;28;20222;-74
2021/08/01 08:29:36;;;;;;;0.00;0.00;;;;;;;;;;5095672;28;20302;-74
2021/08/01 08:32:02;;;;;;;0.00;0.00;;;;;;;;;;5089797;28;20424;-74
2021/08/01 08:34:29;;;;;;;0.00;0.00;;;;;;;;;;5095429;28;20208;-73
2021/08/01 08:37:00;;;;;;;0.03;0.03;;;;;;;;;;5091905;28;20264;-74
2021/08/01 08:39:26;;;;;;;0.00;0.00;;;;;;;;;;5097567;28;20214;-74
2021/08/01 08:41:52;;;;;;;0.00;0.00;;;;;;;;;;5093391;28;20204;-73
2021/08/01 08:44:19;;;;;;;0.00;0.00;;;;;;;;;;5096233;28;20206;-73
2021/08/01 08:46:47;;;;;;;0.00;0.00;;;;;;;;;;5091924;28;20314;-73
2021/08/01 08:49:14;;;;;;;0.00;0.00;;;;;;;;;;5089222;28;20244;-73
2021/08/01 08:51:41;;;;;;;0.00;0.00;;;;;;;;;;5087173;28;20197;-74
2021/08/01 08:54:10;;;;;;;0.00;0.00;;;;;;;;;;5097166;28;20207;-73
2021/08/01 08:56:37;;;;;;;0.00;0.00;;;;;;;;;;5086364;28;20207;-73
2021/08/01 08:59:04;;;;;;;0.00;0.00;;;;;;;;;;5093323;28;20224;-73
2021/08/01 09:01:30;;;;;;;0.00;0.00;;;;;;;;;;5093967;28;20203;-73
2021/08/01 09:03:58;;;;;;;0.10;0.10;;;;;;;;;;5091736;28;20198;-72
2021/08/01 09:06:24;;;;;;;0.00;0.00;;;;;;;;;;5095212;28;20295;-73
2021/08/01 09:08:51;;;;;;;0.00;0.00;;;;;;;;;;5103604;28;20198;-72
2021/08/01 09:11:17;;;;;;;0.10;0.10;;;;;;;;;;5103214;28;20462;-73
2021/08/01 09:13:47;;;;;;;0.00;0.00;;;;;;;;;;5096113;28;20198;-73
2021/08/01 09:16:13;;;;;;;0.00;0.00;;;;;;;;;;5091048;28;20212;-74
2021/08/01 09:18:40;;;;;;;0.10;0.10;;;;;;;;;;5092349;28;20283;-73
2021/08/01 09:21:07;;;;;;;0.00;0.00;;;;;;;;;;5098842;28;20392;-72
2021/08/01 09:23:34;;;;;;;0.00;0.00;;;;;;;;;;5095603;28;20200;-73
2021/08/01 09:26:01;;;;;;;0.10;0.10;;;;;;;;;;5088702;28;20208;-75
2021/08/01 09:28:29;;;;;;;0.00;0.00;;;;;;;;;;5103161;28;20496;-75
2021/08/01 09:30:55;;;;;;;0.10;0.10;;;;;;;;;;5093551;28;20232;-66
2021/08/01 09:33:31;;;;;;;0.00;0.00;;;;;;;;;;5094166;28;20486;-67
2021/08/01 09:36:04;;;;;;;0.00;0.00;;;;;;;;;;5093677;28;20254;-69
2021/08/01 09:38:42;;;;;;;0.10;0.10;;;;;;;;;;5094200;28;20325;-69
2021/08/01 09:41:08;;;;;;;0.00;0.00;;;;;;;;;;5102745;28;20272;-68
2021/08/01 09:43:43;;;;;;;0.00;0.00;;;;;;;;;;5099422;28;20238;-69
2021/08/01 09:46:09;;;;;;;0.00;0.00;;;;;;;;;;5094394;28;20194;-71
2021/08/01 09:48:35;;;;;;;0.10;0.10;;;;;;;;;;5094531;28;20367;-69
2021/08/01 09:51:02;;;;;;;0.00;0.00;;;;;;;;;;5103116;28;20251;-67
2021/08/01 09:53:29;;;;;;;0.00;0.00;;;;;;;;;;5103127;28;20201;-71
2021/08/01 09:56:16;;;;;;;0.00;0.00;;;;;;;;;;5103621;28;20201;-72
2021/08/01 09:58:42;;;;;;;0.00;0.00;;;;;;;;;;5098852;28;20270;-71
2021/08/01 10:01:09;;;;;;;0.10;0.10;;;;;;;;;;5083030;28;20247;-71
2021/08/01 10:03:36;;;;;;;0.00;0.00;;;;;;;;;;5096882;28;20476;-72
2021/08/01 10:06:09;;;;;;;0.00;0.00;;;;;;;;;;5087882;28;20206;-72
2021/08/01 10:08:38;;;;;;;0.00;0.00;;;;;;;;;;5091845;28;20255;-69
2021/08/01 10:11:11;;;;;;;0.00;0.00;;;;;;;;;;5093431;28;20219;-73
2021/08/01 10:13:39;;;;;;;0.00;0.00;;;;;;;;;;5091903;28;20214;-72
2021/08/01 10:16:07;;;;;;;0.00;0.00;;;;;;;;;;5091488;28;20280;-74
2021/08/01 10:18:34;;;;;;;0.00;0.00;;;;;;;;;;5097781;28;20229;-70
2021/08/01 10:21:01;;;;;;;0.00;0.00;;;;;;;;;;5094389;28;20208;-71
2021/08/01 10:23:28;;;;;;;0.00;0.00;;;;;;;;;;5103052;28;20207;-72
2021/08/01 10:25:55;;;;;;;0.00;0.00;;;;;;;;;;5100762;28;20208;-72
2021/08/01 10:28:23;;;;;;;0.00;0.00;;;;;;;;;;5100297;28;20257;-70
2021/08/01 10:30:51;;;;;;;0.05;0.05;;;;;;;;;;5088641;28;20206;-68
2021/08/01 10:33:22;;;;;;;0.00;0.00;;;;;;;;;;5102166;28;20259;-72
2021/08/01 10:35:52;;;;;;;0.00;0.00;;;;;;;;;;5101362;28;20201;-69
2021/08/01 10:38:21;;;;;;;0.00;0.00;;;;;;;;;;5095007;28;20262;-69
2021/08/01 10:40:52;;;;;;;0.00;0.00;;;;;;;;;;5103391;28;20259;-69
2021/08/01 10:43:20;;;;;;;0.00;0.00;;;;;;;;;;5093316;28;20209;-70
2021/08/01 10:45:46;;;;;;;0.10;0.10;;;;;;;;;;5102147;28;20427;-68
2021/08/01 10:48:14;;;;;;;0.03;0.03;;;;;;;;;;5103920;28;20256;-68
2021/08/01 10:50:41;;;;;;;0.05;0.05;;;;;;;;;;5104004;28;20556;-68
2021/08/01 10:53:23;;;;;;;0.00;0.00;;;;;;;;;;5104996;28;20488;-68
2021/08/01 10:55:50;;;;;;;0.00;0.00;;;;;;;;;;5090000;28;20211;-68
2021/08/01 10:58:17;;;;;;;0.00;0.00;;;;;;;;;;5099911;28;20278;-68
2021/08/01 11:01:00;;;;;;;0.00;0.00;;;;;;;;;;5086119;28;20205;-67
2021/08/01 11:03:27;;;;;;;0.00;0.00;;;;;;;;;;5096878;28;20496;-67
2021/08/01 11:05:54;;;;;;;0.00;0.00;;;;;;;;;;5091323;28;20204;-68
2021/08/01 11:08:20;;;;;;;0.00;0.00;;;;;;;;;;5104832;28;20209;-68
2021/08/01 11:10:47;;;;;;;0.00;0.00;;;;;;;;;;5094172;28;20249;-72
2021/08/01 11:13:32;;;;;;;0.00;0.00;;;;;;;;;;5097547;28;20256;-72
2021/08/01 11:15:58;;;;;;;0.10;0.10;;;;;;;;;;5104652;28;20206;-69
2021/08/01 11:18:33;;;;;;;0.00;0.00;;;;;;;;;;5098044;28;20228;-70
2021/08/01 11:21:03;;;;;;;0.10;0.10;;;;;;;;;;5095444;28;20443;-69
2021/08/01 11:23:49;;;;;;;0.10;0.10;;;;;;;;;;5094377;28;20196;-70
2021/08/01 11:26:16;;;;;;;0.00;0.00;;;;;;;;;;5097888;28;20459;-71
2021/08/01 11:28:43;;;;;;;0.10;0.10;;;;;;;;;;5105387;28;20368;-70
2021/08/01 11:31:19;;;;;;;0.00;0.00;;;;;;;;;;5101858;28;20459;-70
2021/08/01 11:33:47;;;;;;;0.00;0.00;;;;;;;;;;5101280;28;20291;-71
2021/08/01 11:36:21;;;;;;;0.10;0.10;;;;;;;;;;5099069;28;20413;-69
2021/08/01 11:39:02;;;;;;;0.00;0.00;;;;;;;;;;5105168;28;20231;-69
2021/08/01 11:41:35;;;;;;;0.00;0.00;;;;;;;;;;5099346;28;20211;-68
2021/08/01 11:44:02;;;;;;;0.00;0.00;;;;;;;;;;5105075;28;20508;-69
2021/08/01 11:46:29;;;;;;;0.00;0.00;;;;;;;;;;5095767;28;20508;-70
2021/08/01 11:48:59;;;;;;;0.00;0.00;;;;;;;;;;5096104;28;20265;-68
2021/08/01 11:51:26;;;;;;;0.00;0.00;;;;;;;;;;5105081;28;20214;-67
2021/08/01 11:53:53;;;;;;;0.10;0.10;;;;;;;;;;5105094;28;20247;-67
2021/08/01 11:56:19;;;;;;;0.00;0.00;;;;;;;;;;5105042;28;20213;-66
2021/08/01 11:58:46;;;;;;;0.08;0.08;;;;;;;;;;5092811;28;20292;-68
2021/08/01 12:01:13;;;;;;;0.00;0.00;;;;;;;;;;5101811;28;20211;-68
2021/08/01 12:03:40;;;;;;;0.00;0.00;;;;;;;;;;5102981;28;20508;-66
2021/08/01 12:06:07;;;;;;;0.00;0.00;;;;;;;;;;5096667;28;20213;-67
2021/08/01 12:08:34;;;;;;;0.00;0.00;;;;;;;;;;5093089;28;20207;-66
2021/08/01 12:11:07;;;;;;;0.00;0.00;;;;;;;;;;5104461;28;20226;-68
2021/08/01 12:13:34;;;;;;;0.00;0.00;;;;;;;;;;5103977;28;20232;-65
2021/08/01 12:16:00;;;;;;;0.00;0.00;;;;;;;;;;5097567;28;20243;-66
2021/08/01 12:18:26;;;;;;;0.00;0.00;;;;;;;;;;5104251;28;20225;-66
2021/08/01 12:20:53;;;;;;;0.00;0.00;;;;;;;;;;5097430;28;20433;-65
2021/08/01 12:23:35;;;;;;;0.10;0.10;;;;;;;;;;5097546;28;20253;-66
2021/08/01 12:26:01;;;;;;;0.00;0.00;;;;;;;;;;5090406;28;20381;-66
2021/08/01 12:28:38;;;;;;;0.00;0.00;;;;;;;;;;5094829;28;20221;-65
2021/08/01 12:31:04;;;;;;;0.10;0.10;;;;;;;;;;5088374;28;20203;-66
2021/08/01 12:33:30;;;;;;;0.00;0.00;;;;;;;;;;5095425;28;20198;-66
2021/08/01 12:35:56;;;;;;;0.00;0.00;;;;;;;;;;5100311;28;20217;-67
2021/08/01 12:38:25;;;;;;;0.00;0.00;;;;;;;;;;5104171;28;20203;-67
2021/08/01 12:40:52;;;;;;;0.10;0.10;;;;;;;;;;5101960;28;20236;-67
2021/08/01 12:43:26;;;;;;;0.00;0.00;;;;;;;;;;5103652;28;20210;-66
2021/08/01 12:45:54;;;;;;;0.00;0.00;;;;;;;;;;5098911;28;20200;-65
2021/08/01 12:48:21;;;;;;;0.10;0.10;;;;;;;;;;5096577;28;20357;-69
2021/08/01 12:50:49;;;;;;;0.00;0.00;;;;;;;;;;5098102;28;20411;-68
2021/08/01 12:53:16;;;;;;;0.00;0.00;;;;;;;;;;5091561;28;20229;-66
2021/08/01 12:55:44;;;;;;;0.00;0.00;;;;;;;;;;5094197;28;20414;-65
2021/08/01 12:58:11;;;;;;;0.00;0.00;;;;;;;;;;5094055;28;20509;-64
2021/08/01 13:00:38;;;;;;;0.05;0.05;;;;;;;;;;5102791;28;20210;-66
2021/08/01 13:03:05;;;;;;;0.00;0.00;;;;;;;;;;5093942;28;20211;-67
2021/08/01 13:05:33;;;;;;;0.00;0.00;;;;;;;;;;5100386;28;20194;-67
2021/08/01 13:08:00;;;;;;;0.00;0.00;;;;;;;;;;5094014;28;20273;-67
2021/08/01 13:10:27;;;;;;;0.00;0.00;;;;;;;;;;5091597;28;20218;-68
2021/08/01 13:13:08;;;;;;;0.00;0.00;;;;;;;;;;5089978;28;20248;-67
2021/08/01 13:15:36;;;;;;;0.00;0.00;;;;;;;;;;5093245;28;20221;-68
2021/08/01 13:18:04;;;;;;;0.00;0.00;;;;;;;;;;5098396;28;20238;-68
2021/08/01 13:20:37;;;;;;;0.00;0.00;;;;;;;;;;5096590;28;20234;-70
2021/08/01 13:23:03;;;;;;;0.00;0.00;;;;;;;;;;5098909;28;20340;-66
2021/08/01 13:25:34;;;;;;;0.00;0.00;;;;;;;;;;5098355;28;20436;-68
2021/08/01 13:28:00;;;;;;;0.00;0.00;;;;;;;;;;5096625;28;20518;-68
2021/08/01 13:30:27;;;;;;;0.00;0.00;;;;;;;;;;5096589;28;20423;-67
2021/08/01 13:32:54;;;;;;;0.00;0.00;;;;;;;;;;5095962;28;20243;-68
2021/08/01 13:35:20;;;;;;;0.03;0.03;;;;;;;;;;5097696;28;20433;-68
2021/08/01 13:38:00;;;;;;;0.00;0.00;;;;;;;;;;5098183;28;20505;-70
2021/08/01 13:40:28;;;;;;;0.00;0.00;;;;;;;;;;5097422;28;20418;-68
2021/08/01 13:42:55;;;;;;;0.00;0.00;;;;;;;;;;5098456;28;20378;-68
2021/08/01 13:45:25;;;;;;;0.00;0.00;;;;;;;;;;5099600;28;20210;-68
2021/08/01 13:47:53;;;;;;;0.00;0.00;;;;;;;;;;5098884;28;20206;-67
2021/08/01 13:50:20;;;;;;;0.00;0.00;;;;;;;;;;5097832;28;20303;-67
2021/08/01 13:52:48;;;;;;;0.00;0.00;;;;;;;;;;5098480;28;20418;-68
2021/08/01 13:55:15;;;;;;;0.00;0.00;;;;;;;;;;5098952;28;20222;-66
2021/08/01 13:57:41;;;;;;;0.00;0.00;;;;;;;;;;5090875;28;20217;-69
2021/08/01 14:00:08;;;;;;;0.00;0.00;;;;;;;;;;5094332;28;20237;-66
2021/08/01 14:02:35;;;;;;;0.00;0.00;;;;;;;;;;5097591;28;20424;-68
2021/08/01 14:05:03;;;;;;;0.00;0.00;;;;;;;;;;5098616;28;20204;-69
2021/08/01 14:07:29;;;;;;;0.00;0.00;;;;;;;;;;5098007;28;20289;-66
2021/08/01 14:09:56;;;;;;;0.00;0.00;;;;;;;;;;5095354;28;20319;-66
2021/08/01 14:12:23;;;;;;;0.05;0.05;;;;;;;;;;5101327;28;20360;-68
2021/08/01 14:14:50;;;;;;;0.00;0.00;;;;;;;;;;5100851;28;20214;-66
2021/08/01 14:17:16;;;;;;;0.00;0.00;;;;;;;;;;5100459;28;20391;-68
2021/08/01 14:19:43;;;;;;;0.00;0.00;;;;;;;;;;5098126;28;20572;-68
2021/08/01 14:22:10;;;;;;;0.08;0.08;;;;;;;;;;5101170;28;20223;-69
2021/08/01 14:24:37;;;;;;;0.00;0.00;;;;;;;;;;5100770;28;20267;-69
2021/08/01 14:27:04;;;;;;;0.00;0.00;;;;;;;;;;5099680;28;20222;-67
2021/08/01 14:29:33;;;;;;;0.10;0.10;;;;;;;;;;5100431;28;20210;-70
2021/08/01 14:32:02;;;;;;;0.00;0.00;;;;;;;;;;5103102;28;20207;-66
2021/08/01 14:34:29;;;;;;;0.00;0.00;;;;;;;;;;5101026;28;20210;-69
2021/08/01 14:36:57;;;;;;;0.00;0.00;;;;;;;;;;5099653;28;20332;-66
2021/08/01 14:39:25;;;;;;;0.00;0.00;;;;;;;;;;5099921;28;20342;-67
2021/08/01 14:41:52;;;;;;;0.00;0.00;;;;;;;;;;5097408;28;20214;-66
2021/08/01 14:44:19;;;;;;;0.00;0.00;;;;;;;;;;5100234;28;20267;-66
2021/08/01 14:46:45;;;;;;;0.05;0.05;;;;;;;;;;5101137;28;20218;-66